Spaceon02064 — ASD — position and weather

sailwx.info

Track history (hours):
 
Tides and Currents Weather Stations Pressure Air Temp Water Temp Dewpoint Dewpoint Depression Visibility Wind Speed Wind Dir Waves Ship Positions

Spaceon02064

Last reported at 2016-Jan-31 05:32 UTC. Time now 2016-Feb-08 10:19 UTC.
Position N 31°22' E 121°30'.
Warning: this ship's position is 8 days out of date.

Length 6 m.

Type: Ship. MMSI: 200902064.

Date/timePositionNaut miles runAvg speedWind from/ knotsBaromVisibWave heightAir tempDewpointWater temp
2016-Jan-31 05:32N 31°22' E 121°30'419393.4
2016-Jan-31 04:28N 24°48' E 118°47'4232611.5
2016-Jan-31 04:18N 31°26' E 121°29'6 0.3
2016-Jan-30 08:33N 31°29' E 121°24'1 0.0
2016-Jan-29 05:25N 31°29' E 121°25'8 3.5
2016-Jan-29 03:12N 31°23' E 121°30'10127.3
2016-Jan-28 23:29N 29°45' E 122°03'9 9.2
2016-Jan-28 22:31N 29°53' E 122°09'8 8.3
2016-Jan-28 21:32N 29°59' E 122°02'81 6.1
2016-Jan-28 08:16N 31°18' E 121°43'4 5.7
2016-Jan-28 07:33N 31°21' E 121°39'5 4.6
2016-Jan-28 06:33N 31°23' E 121°34'4 3.9
2016-Jan-28 05:34N 31°22' E 121°30'3364.3
2016-Jan-28 05:03N 31°06' E 120°57'3457.5
2016-Jan-28 04:28N 31°20' E 121°32'0 0.0
2016-Jan-28 03:30N 31°20' E 121°32'16752.5
2016-Jan-28 03:29N 31°05' E 121°28'1617.3
2016-Jan-28 02:33N 31°20' E 121°32'0 0.0
2016-Jan-28 01:33N 31°20' E 121°32'0 0.0
2016-Jan-28 00:33N 31°20' E 121°32'0 0.0
2016-Jan-27 23:33N 31°20' E 121°32'0 0.0
2016-Jan-27 22:33N 31°20' E 121°32'0 0.0
2016-Jan-27 21:33N 31°20' E 121°32'0 0.0
2016-Jan-27 20:30N 31°20' E 121°32'0 0.0
2016-Jan-27 19:33N 31°20' E 121°32'0 0.0
2016-Jan-27 18:33N 31°20' E 121°32'0 0.0
2016-Jan-27 17:33N 31°20' E 121°32'0 0.0
2016-Jan-27 16:32N 31°20' E 121°32'0 0.0
2016-Jan-27 15:20N 31°20' E 121°32'0 0.0
2016-Jan-27 14:23N 31°20' E 121°32'0 0.0
2016-Jan-27 13:32N 31°20' E 121°32'0 0.0
2016-Jan-27 12:26N 31°20' E 121°32'0 0.0
2016-Jan-27 11:26N 31°20' E 121°32'0 0.0
2016-Jan-27 10:32N 31°20' E 121°32'0 0.0
2016-Jan-27 09:31N 31°20' E 121°32'0 0.0
2016-Jan-27 07:31N 31°20' E 121°32'0 0.0
2016-Jan-27 04:14N 31°20' E 121°32'0 0.0
2016-Jan-27 02:27N 31°20' E 121°32'5 5.6
2016-Jan-27 01:33N 31°15' E 121°32'0 0.1
2016-Jan-27 00:24N 31°16' E 121°32'0 0.0
2016-Jan-26 23:33N 31°16' E 121°32'0 0.0
2016-Jan-26 22:33N 31°16' E 121°32'0 0.0
2016-Jan-26 21:21N 31°16' E 121°32'0 0.0
2016-Jan-26 20:33N 31°16' E 121°32'0 0.0
2016-Jan-26 19:33N 31°16' E 121°32'0 0.0
2016-Jan-26 15:14N 31°16' E 121°32'0 0.0
2016-Jan-26 12:29N 31°16' E 121°32'0 0.0
2016-Jan-26 11:32N 31°16' E 121°32'6331.7
2016-Jan-26 09:33N 32°00' E 120°40'631132.2
2016-Jan-26 09:29N 31°16' E 121°32'5862.2
2016-Jan-26 08:33N 32°00' E 120°49'9 8.5
2016-Jan-26 07:30N 31°52' E 120°54'28 8.4
2016-Jan-26 04:13N 31°35' E 121°19'5 6.9
2016-Jan-26 03:33N 31°32' E 121°23'7 5.2
2016-Jan-26 02:17N 31°27' E 121°29'12 7.0
2016-Jan-26 00:33N 31°16' E 121°32'925.6
2016-Jan-26 00:11N 31°25' E 121°32'914.9
2016-Jan-25 23:33N 31°16' E 121°32'6132.6
2016-Jan-25 23:31N 31°21' E 121°31'6 1.5
2016-Jan-25 19:27N 31°16' E 121°32'0 0.0
2016-Jan-25 18:33N 31°16' E 121°32'0 0.0
2016-Jan-25 17:33N 31°16' E 121°32'0 0.0
2016-Jan-25 15:33N 31°16' E 121°32'0 0.0
2016-Jan-25 14:30N 31°16' E 121°32'0 0.0
2016-Jan-25 13:24N 31°16' E 121°32'0 0.0
2016-Jan-25 12:33N 31°16' E 121°32'16259.7
2016-Jan-25 12:29N 31°01' E 121°27'1616.6
2016-Jan-25 11:33N 31°16' E 121°32'0 0.0
2016-Jan-25 03:08N 31°16' E 121°32'0 0.0
2016-Jan-25 02:32N 31°16' E 121°32'0 0.0
2016-Jan-25 01:32N 31°16' E 121°32'0 0.0
2016-Jan-25 00:10N 31°16' E 121°32'0 0.0
2016-Jan-24 23:25N 31°16' E 121°32'0 0.0
2016-Jan-24 22:19N 31°16' E 121°32'0 0.0
2016-Jan-24 19:10N 31°16' E 121°32'0 0.0
2016-Jan-24 18:31N 31°16' E 121°32'0 0.0
2016-Jan-24 17:31N 31°16' E 121°32'0 0.0
2016-Jan-24 15:13N 31°16' E 121°32'0 0.0
2016-Jan-24 14:25N 31°16' E 121°32'0 0.0
2016-Jan-24 13:30N 31°16' E 121°32'0 0.0
2016-Jan-23 18:29N 31°16' E 121°32'0 0.0
2016-Jan-23 17:29N 31°16' E 121°32'0 0.0
2016-Jan-23 16:13N 31°16' E 121°32'0 0.0
2016-Jan-23 14:25N 31°16' E 121°32'0 0.0
2016-Jan-23 13:31N 31°16' E 121°32'0 0.0
2016-Jan-23 01:30N 31°16' E 121°32'0 0.0
2016-Jan-23 00:18N 31°16' E 121°32'0 0.0
2016-Jan-22 23:17N 31°16' E 121°32'0 0.0
2016-Jan-22 22:26N 31°16' E 121°32'0 0.0
2016-Jan-22 21:29N 31°16' E 121°32'0 0.0
2016-Jan-22 20:26N 31°16' E 121°32'0 0.0
2016-Jan-22 19:32N 31°16' E 121°32'0 0.0
2016-Jan-22 18:32N 31°16' E 121°32'0 0.0
2016-Jan-22 17:32N 31°16' E 121°32'0 0.0
2016-Jan-22 16:32N 31°16' E 121°32'0 0.0
2016-Jan-22 15:29N 31°16' E 121°32'0 0.0
2016-Jan-22 14:23N 31°16' E 121°32'60249.1
2016-Jan-22 14:08N 32°01' E 120°45'4 6.1
2016-Jan-22 13:32N 31°60' E 120°49'58850.0
2016-Jan-22 13:28N 31°16' E 121°32'0 0.0
2016-Jan-22 12:31N 31°16' E 121°32'50133.2
2016-Jan-22 12:09N 31°53' E 120°54'5064.6
2016-Jan-22 11:22N 31°16' E 121°32'0 0.0
2016-Jan-22 10:22N 31°16' E 121°32'0 0.0
2016-Jan-22 09:32N 31°16' E 121°32'35147.1
2016-Jan-22 09:18N 31°44' E 121°07'3546.6
2016-Jan-22 08:32N 31°16' E 121°32'0 0.0
2016-Jan-22 07:27N 31°16' E 121°32'0 0.0
2016-Jan-22 06:29N 31°16' E 121°32'0 0.0
2016-Jan-22 05:26N 31°16' E 121°32'839.4
2016-Jan-22 05:13N 31°24' E 121°31'8 4.2
2016-Jan-22 03:13N 31°16' E 121°32'0 0.0
2016-Jan-22 02:31N 31°16' E 121°32'0 0.0
2016-Jan-21 22:31N 31°16' E 121°32'0 0.0
2016-Jan-21 21:04N 31°16' E 121°32'0 0.0
2016-Jan-21 20:13N 31°16' E 121°32'0 0.0
2016-Jan-21 19:28N 31°16' E 121°32'0 0.0
2016-Jan-21 18:30N 31°16' E 121°32'0 0.0
2016-Jan-21 17:30N 31°16' E 121°32'3083.0
2016-Jan-21 17:09N 31°05' E 120°60'2710.4
2016-Jan-21 14:33N 31°15' E 121°29'6 5.8
2016-Jan-21 13:33N 31°09' E 121°27'15 3.8
2016-Jan-21 09:29N 31°24' E 121°31'17 8.9
2016-Jan-21 07:32N 31°07' E 121°28'5 4.9
2016-Jan-21 06:32N 31°12' E 121°29'5 4.5
2016-Jan-21 05:33N 31°15' E 121°32'  
Track history (hours):
 
Tides and Currents Weather Stations Pressure Air Temp Water Temp Dewpoint Dewpoint Depression Visibility Wind Speed Wind Dir Waves Ship Positions

Spaceon02064

Last reported at 2016-Jan-31 05:32 UTC. Time now 2016-Feb-08 10:19 UTC.
Position N 31°22' E 121°30'.
Warning: this ship's position is 8 days out of date.

Length 6 m.

Type: Ship. MMSI: 200902064.

Date/timePositionNaut miles runAvg speedWind from/ knotsBaromVisibWave heightAir tempDewpointWater temp
2016-Jan-31 05:32N 31°22' E 121°30'419393.4
2016-Jan-31 04:28N 24°48' E 118°47'4232611.5
2016-Jan-31 04:18N 31°26' E 121°29'6 0.3
2016-Jan-30 08:33N 31°29' E 121°24'1 0.0
2016-Jan-29 05:25N 31°29' E 121°25'8 3.5
2016-Jan-29 03:12N 31°23' E 121°30'10127.3
2016-Jan-28 23:29N 29°45' E 122°03'9 9.2
2016-Jan-28 22:31N 29°53' E 122°09'8 8.3
2016-Jan-28 21:32N 29°59' E 122°02'81 6.1
2016-Jan-28 08:16N 31°18' E 121°43'4 5.7
2016-Jan-28 07:33N 31°21' E 121°39'5 4.6
2016-Jan-28 06:33N 31°23' E 121°34'4 3.9
2016-Jan-28 05:34N 31°22' E 121°30'3364.3
2016-Jan-28 05:03N 31°06' E 120°57'3457.5
2016-Jan-28 04:28N 31°20' E 121°32'0 0.0
2016-Jan-28 03:30N 31°20' E 121°32'16752.5
2016-Jan-28 03:29N 31°05' E 121°28'1617.3
2016-Jan-28 02:33N 31°20' E 121°32'0 0.0
2016-Jan-28 01:33N 31°20' E 121°32'0 0.0
2016-Jan-28 00:33N 31°20' E 121°32'0 0.0
2016-Jan-27 23:33N 31°20' E 121°32'0 0.0
2016-Jan-27 22:33N 31°20' E 121°32'0 0.0
2016-Jan-27 21:33N 31°20' E 121°32'0 0.0
2016-Jan-27 20:30N 31°20' E 121°32'0 0.0
2016-Jan-27 19:33N 31°20' E 121°32'0 0.0
2016-Jan-27 18:33N 31°20' E 121°32'0 0.0
2016-Jan-27 17:33N 31°20' E 121°32'0 0.0
2016-Jan-27 16:32N 31°20' E 121°32'0 0.0
2016-Jan-27 15:20N 31°20' E 121°32'0 0.0
2016-Jan-27 14:23N 31°20' E 121°32'0 0.0
2016-Jan-27 13:32N 31°20' E 121°32'0 0.0
2016-Jan-27 12:26N 31°20' E 121°32'0 0.0
2016-Jan-27 11:26N 31°20' E 121°32'0 0.0
2016-Jan-27 10:32N 31°20' E 121°32'0 0.0
2016-Jan-27 09:31N 31°20' E 121°32'0 0.0
2016-Jan-27 07:31N 31°20' E 121°32'0 0.0
2016-Jan-27 04:14N 31°20' E 121°32'0 0.0
2016-Jan-27 02:27N 31°20' E 121°32'5 5.6
2016-Jan-27 01:33N 31°15' E 121°32'0 0.1
2016-Jan-27 00:24N 31°16' E 121°32'0 0.0
2016-Jan-26 23:33N 31°16' E 121°32'0 0.0
2016-Jan-26 22:33N 31°16' E 121°32'0 0.0
2016-Jan-26 21:21N 31°16' E 121°32'0 0.0
2016-Jan-26 20:33N 31°16' E 121°32'0 0.0
2016-Jan-26 19:33N 31°16' E 121°32'0 0.0
2016-Jan-26 15:14N 31°16' E 121°32'0 0.0
2016-Jan-26 12:29N 31°16' E 121°32'0 0.0
2016-Jan-26 11:32N 31°16' E 121°32'6331.7
2016-Jan-26 09:33N 32°00' E 120°40'631132.2
2016-Jan-26 09:29N 31°16' E 121°32'5862.2
2016-Jan-26 08:33N 32°00' E 120°49'9 8.5
2016-Jan-26 07:30N 31°52' E 120°54'28 8.4
2016-Jan-26 04:13N 31°35' E 121°19'5 6.9
2016-Jan-26 03:33N 31°32' E 121°23'7 5.2
2016-Jan-26 02:17N 31°27' E 121°29'12 7.0
2016-Jan-26 00:33N 31°16' E 121°32'925.6
2016-Jan-26 00:11N 31°25' E 121°32'914.9
2016-Jan-25 23:33N 31°16' E 121°32'6132.6
2016-Jan-25 23:31N 31°21' E 121°31'6 1.5
2016-Jan-25 19:27N 31°16' E 121°32'0 0.0
2016-Jan-25 18:33N 31°16' E 121°32'0 0.0
2016-Jan-25 17:33N 31°16' E 121°32'0 0.0
2016-Jan-25 15:33N 31°16' E 121°32'0 0.0
2016-Jan-25 14:30N 31°16' E 121°32'0 0.0
2016-Jan-25 13:24N 31°16' E 121°32'0 0.0
2016-Jan-25 12:33N 31°16' E 121°32'16259.7
2016-Jan-25 12:29N 31°01' E 121°27'1616.6
2016-Jan-25 11:33N 31°16' E 121°32'0 0.0
2016-Jan-25 03:08N 31°16' E 121°32'0 0.0
2016-Jan-25 02:32N 31°16' E 121°32'0 0.0
2016-Jan-25 01:32N 31°16' E 121°32'0 0.0
2016-Jan-25 00:10N 31°16' E 121°32'0 0.0
2016-Jan-24 23:25N 31°16' E 121°32'0 0.0
2016-Jan-24 22:19N 31°16' E 121°32'0 0.0
2016-Jan-24 19:10N 31°16' E 121°32'0 0.0
2016-Jan-24 18:31N 31°16' E 121°32'0 0.0
2016-Jan-24 17:31N 31°16' E 121°32'0 0.0
2016-Jan-24 15:13N 31°16' E 121°32'0 0.0
2016-Jan-24 14:25N 31°16' E 121°32'0 0.0
2016-Jan-24 13:30N 31°16' E 121°32'0 0.0
2016-Jan-23 18:29N 31°16' E 121°32'0 0.0
2016-Jan-23 17:29N 31°16' E 121°32'0 0.0
2016-Jan-23 16:13N 31°16' E 121°32'0 0.0
2016-Jan-23 14:25N 31°16' E 121°32'0 0.0
2016-Jan-23 13:31N 31°16' E 121°32'0 0.0
2016-Jan-23 01:30N 31°16' E 121°32'0 0.0
2016-Jan-23 00:18N 31°16' E 121°32'0 0.0
2016-Jan-22 23:17N 31°16' E 121°32'0 0.0
2016-Jan-22 22:26N 31°16' E 121°32'0 0.0
2016-Jan-22 21:29N 31°16' E 121°32'0 0.0
2016-Jan-22 20:26N 31°16' E 121°32'0 0.0
2016-Jan-22 19:32N 31°16' E 121°32'0 0.0
2016-Jan-22 18:32N 31°16' E 121°32'0 0.0
2016-Jan-22 17:32N 31°16' E 121°32'0 0.0
2016-Jan-22 16:32N 31°16' E 121°32'0 0.0
2016-Jan-22 15:29N 31°16' E 121°32'0 0.0
2016-Jan-22 14:23N 31°16' E 121°32'60249.1
2016-Jan-22 14:08N 32°01' E 120°45'4 6.1
2016-Jan-22 13:32N 31°60' E 120°49'58850.0
2016-Jan-22 13:28N 31°16' E 121°32'0 0.0
2016-Jan-22 12:31N 31°16' E 121°32'50133.2
2016-Jan-22 12:09N 31°53' E 120°54'5064.6
2016-Jan-22 11:22N 31°16' E 121°32'0 0.0
2016-Jan-22 10:22N 31°16' E 121°32'0 0.0
2016-Jan-22 09:32N 31°16' E 121°32'35147.1
2016-Jan-22 09:18N 31°44' E 121°07'3546.6
2016-Jan-22 08:32N 31°16' E 121°32'0 0.0
2016-Jan-22 07:27N 31°16' E 121°32'0 0.0
2016-Jan-22 06:29N 31°16' E 121°32'0 0.0
2016-Jan-22 05:26N 31°16' E 121°32'839.4
2016-Jan-22 05:13N 31°24' E 121°31'8 4.2
2016-Jan-22 03:13N 31°16' E 121°32'0 0.0
2016-Jan-22 02:31N 31°16' E 121°32'0 0.0
2016-Jan-21 22:31N 31°16' E 121°32'0 0.0
2016-Jan-21 21:04N 31°16' E 121°32'0 0.0
2016-Jan-21 20:13N 31°16' E 121°32'0 0.0
2016-Jan-21 19:28N 31°16' E 121°32'0 0.0
2016-Jan-21 18:30N 31°16' E 121°32'0 0.0
2016-Jan-21 17:30N 31°16' E 121°32'3083.0
2016-Jan-21 17:09N 31°05' E 120°60'2710.4
2016-Jan-21 14:33N 31°15' E 121°29'6 5.8
2016-Jan-21 13:33N 31°09' E 121°27'15 3.8
2016-Jan-21 09:29N 31°24' E 121°31'17 8.9
2016-Jan-21 07:32N 31°07' E 121°28'5 4.9
2016-Jan-21 06:32N 31°12' E 121°29'5 4.5
2016-Jan-21 05:33N 31°15' E 121°32'  

Dump ship's entire track history